sensor_id;sensor_type;location;lat;lon;timestamp;P1;durP1;ratioP1;P2;durP2;ratioP2
38457;SDS011;24239;48.058;10.486;2022-12-18T00:01:23;62.97;;;29.08;;
38457;SDS011;24239;48.058;10.486;2022-12-18T00:03:51;58.33;;;27.50;;
38457;SDS011;24239;48.058;10.486;2022-12-18T00:06:18;50.78;;;25.35;;
38457;SDS011;24239;48.058;10.486;2022-12-18T00:08:45;56.70;;;27.70;;
38457;SDS011;24239;48.058;10.486;2022-12-18T00:11:12;62.03;;;27.33;;
38457;SDS011;24239;48.058;10.486;2022-12-18T00:13:39;54.92;;;26.83;;
38457;SDS011;24239;48.058;10.486;2022-12-18T00:16:09;58.88;;;26.55;;
38457;SDS011;24239;48.058;10.486;2022-12-18T00:18:37;57.38;;;25.17;;
38457;SDS011;24239;48.058;10.486;2022-12-18T00:21:04;61.83;;;26.95;;
38457;SDS011;24239;48.058;10.486;2022-12-18T00:23:32;57.25;;;27.52;;
38457;SDS011;24239;48.058;10.486;2022-12-18T00:26:00;62.28;;;26.83;;
38457;SDS011;24239;48.058;10.486;2022-12-18T00:28:27;58.88;;;26.05;;
38457;SDS011;24239;48.058;10.486;2022-12-18T00:31:02;51.90;;;25.33;;
38457;SDS011;24239;48.058;10.486;2022-12-18T00:33:32;53.55;;;25.33;;
38457;SDS011;24239;48.058;10.486;2022-12-18T00:36:02;58.17;;;27.95;;
38457;SDS011;24239;48.058;10.486;2022-12-18T00:38:29;51.47;;;25.23;;
38457;SDS011;24239;48.058;10.486;2022-12-18T00:40:58;54.78;;;26.10;;
38457;SDS011;24239;48.058;10.486;2022-12-18T00:43:27;58.15;;;26.05;;
38457;SDS011;24239;48.058;10.486;2022-12-18T00:45:52;60.95;;;29.65;;
38457;SDS011;24239;48.058;10.486;2022-12-18T00:48:18;63.78;;;29.70;;
38457;SDS011;24239;48.058;10.486;2022-12-18T00:50:45;61.05;;;29.27;;
38457;SDS011;24239;48.058;10.486;2022-12-18T00:53:13;61.75;;;29.02;;
38457;SDS011;24239;48.058;10.486;2022-12-18T00:55:39;63.03;;;29.05;;
38457;SDS011;24239;48.058;10.486;2022-12-18T00:58:06;64.82;;;29.67;;
38457;SDS011;24239;48.058;10.486;2022-12-18T01:00:33;64.43;;;29.00;;
38457;SDS011;24239;48.058;10.486;2022-12-18T01:02:59;65.35;;;27.85;;
38457;SDS011;24239;48.058;10.486;2022-12-18T01:05:25;64.60;;;29.85;;
38457;SDS011;24239;48.058;10.486;2022-12-18T01:07:55;66.93;;;29.77;;
38457;SDS011;24239;48.058;10.486;2022-12-18T01:10:21;57.33;;;26.67;;
38457;SDS011;24239;48.058;10.486;2022-12-18T01:12:51;55.08;;;25.02;;
38457;SDS011;24239;48.058;10.486;2022-12-18T01:15:17;61.83;;;28.05;;
38457;SDS011;24239;48.058;10.486;2022-12-18T01:17:43;55.40;;;25.20;;
38457;SDS011;24239;48.058;10.486;2022-12-18T01:20:09;55.63;;;25.88;;
38457;SDS011;24239;48.058;10.486;2022-12-18T01:22:37;57.42;;;24.48;;
38457;SDS011;24239;48.058;10.486;2022-12-18T01:25:03;57.40;;;25.88;;
38457;SDS011;24239;48.058;10.486;2022-12-18T01:27:39;61.58;;;25.85;;
38457;SDS011;24239;48.058;10.486;2022-12-18T01:30:05;51.03;;;23.52;;
38457;SDS011;24239;48.058;10.486;2022-12-18T01:32:31;55.90;;;24.92;;
38457;SDS011;24239;48.058;10.486;2022-12-18T01:34:57;56.60;;;24.75;;
38457;SDS011;24239;48.058;10.486;2022-12-18T01:37:25;54.17;;;24.70;;
38457;SDS011;24239;48.058;10.486;2022-12-18T01:39:52;54.80;;;25.55;;
38457;SDS011;24239;48.058;10.486;2022-12-18T01:42:19;54.60;;;25.38;;
38457;SDS011;24239;48.058;10.486;2022-12-18T01:49:49;55.30;;;24.15;;
38457;SDS011;24239;48.058;10.486;2022-12-18T01:52:15;53.50;;;25.05;;
38457;SDS011;24239;48.058;10.486;2022-12-18T01:54:43;64.65;;;26.52;;
38457;SDS011;24239;48.058;10.486;2022-12-18T01:57:10;51.13;;;23.83;;
38457;SDS011;24239;48.058;10.486;2022-12-18T01:59:36;60.92;;;25.70;;
38457;SDS011;24239;48.058;10.486;2022-12-18T02:02:04;55.63;;;25.33;;
38457;SDS011;24239;48.058;10.486;2022-12-18T02:04:30;55.53;;;23.67;;
38457;SDS011;24239;48.058;10.486;2022-12-18T02:09:38;63.53;;;26.13;;
38457;SDS011;24239;48.058;10.486;2022-12-18T02:17:21;74.85;;;31.27;;
38457;SDS011;24239;48.058;10.486;2022-12-18T02:27:41;62.78;;;26.88;;
38457;SDS011;24239;48.058;10.486;2022-12-18T02:30:11;65.03;;;24.90;;
38457;SDS011;24239;48.058;10.486;2022-12-18T02:32:42;59.63;;;24.27;;
38457;SDS011;24239;48.058;10.486;2022-12-18T02:35:16;51.70;;;23.63;;
38457;SDS011;24239;48.058;10.486;2022-12-18T02:37:53;60.92;;;26.27;;
38457;SDS011;24239;48.058;10.486;2022-12-18T02:40:20;65.00;;;26.35;;
38457;SDS011;24239;48.058;10.486;2022-12-18T02:42:49;67.25;;;27.98;;
38457;SDS011;24239;48.058;10.486;2022-12-18T02:45:15;70.93;;;27.00;;
38457;SDS011;24239;48.058;10.486;2022-12-18T02:47:44;69.50;;;29.77;;
38457;SDS011;24239;48.058;10.486;2022-12-18T03:01:03;64.50;;;27.73;;
38457;SDS011;24239;48.058;10.486;2022-12-18T03:04:42;63.35;;;25.00;;
38457;SDS011;24239;48.058;10.486;2022-12-18T03:06:40;60.22;;;26.58;;
38457;SDS011;24239;48.058;10.486;2022-12-18T03:09:11;60.78;;;26.85;;
38457;SDS011;24239;48.058;10.486;2022-12-18T03:11:45;70.18;;;28.40;;
38457;SDS011;24239;48.058;10.486;2022-12-18T03:14:36;65.07;;;27.45;;
38457;SDS011;24239;48.058;10.486;2022-12-18T03:17:05;60.22;;;27.23;;
38457;SDS011;24239;48.058;10.486;2022-12-18T03:19:36;60.28;;;27.45;;
38457;SDS011;24239;48.058;10.486;2022-12-18T03:22:04;55.25;;;25.90;;
38457;SDS011;24239;48.058;10.486;2022-12-18T03:24:33;66.85;;;24.85;;
38457;SDS011;24239;48.058;10.486;2022-12-18T03:27:05;64.15;;;28.48;;
38457;SDS011;24239;48.058;10.486;2022-12-18T03:29:44;66.80;;;26.67;;
38457;SDS011;24239;48.058;10.486;2022-12-18T03:32:21;59.10;;;26.58;;
38457;SDS011;24239;48.058;10.486;2022-12-18T03:34:52;66.70;;;28.70;;
38457;SDS011;24239;48.058;10.486;2022-12-18T03:37:22;53.58;;;25.13;;
38457;SDS011;24239;48.058;10.486;2022-12-18T03:39:48;58.15;;;25.70;;
38457;SDS011;24239;48.058;10.486;2022-12-18T03:50:36;57.63;;;27.67;;
38457;SDS011;24239;48.058;10.486;2022-12-18T03:53:53;66.38;;;29.55;;
38457;SDS011;24239;48.058;10.486;2022-12-18T03:56:00;57.63;;;25.35;;
38457;SDS011;24239;48.058;10.486;2022-12-18T03:58:29;93.93;;;38.78;;
38457;SDS011;24239;48.058;10.486;2022-12-18T04:01:02;62.13;;;28.58;;
38457;SDS011;24239;48.058;10.486;2022-12-18T04:03:32;66.03;;;26.67;;
38457;SDS011;24239;48.058;10.486;2022-12-18T04:06:03;73.80;;;29.42;;
38457;SDS011;24239;48.058;10.486;2022-12-18T04:08:31;61.03;;;28.60;;
38457;SDS011;24239;48.058;10.486;2022-12-18T04:11:03;67.80;;;27.25;;
38457;SDS011;24239;48.058;10.486;2022-12-18T04:13:33;66.18;;;26.27;;
38457;SDS011;24239;48.058;10.486;2022-12-18T04:16:01;61.83;;;27.58;;
38457;SDS011;24239;48.058;10.486;2022-12-18T04:18:27;63.38;;;28.35;;
38457;SDS011;24239;48.058;10.486;2022-12-18T04:20:52;62.60;;;26.20;;
38457;SDS011;24239;48.058;10.486;2022-12-18T04:23:18;66.22;;;27.52;;
38457;SDS011;24239;48.058;10.486;2022-12-18T04:25:44;58.53;;;27.02;;
38457;SDS011;24239;48.058;10.486;2022-12-18T04:28:14;62.65;;;28.52;;
38457;SDS011;24239;48.058;10.486;2022-12-18T04:30:40;54.60;;;26.27;;
38457;SDS011;24239;48.058;10.486;2022-12-18T04:33:10;59.53;;;26.00;;
38457;SDS011;24239;48.058;10.486;2022-12-18T04:35:37;58.22;;;25.38;;
38457;SDS011;24239;48.058;10.486;2022-12-18T04:38:05;53.60;;;25.90;;
38457;SDS011;24239;48.058;10.486;2022-12-18T04:40:31;59.40;;;26.80;;
38457;SDS011;24239;48.058;10.486;2022-12-18T04:43:00;61.13;;;26.48;;
38457;SDS011;24239;48.058;10.486;2022-12-18T04:45:25;61.70;;;26.48;;
38457;SDS011;24239;48.058;10.486;2022-12-18T04:47:51;55.15;;;25.33;;
38457;SDS011;24239;48.058;10.486;2022-12-18T04:50:17;52.10;;;24.50;;
38457;SDS011;24239;48.058;10.486;2022-12-18T04:52:43;51.53;;;24.77;;
38457;SDS011;24239;48.058;10.486;2022-12-18T04:55:08;62.33;;;25.98;;
38457;SDS011;24239;48.058;10.486;2022-12-18T04:57:35;53.95;;;25.63;;
38457;SDS011;24239;48.058;10.486;2022-12-18T05:00:00;61.20;;;27.13;;
38457;SDS011;24239;48.058;10.486;2022-12-18T05:02:28;60.53;;;27.25;;
38457;SDS011;24239;48.058;10.486;2022-12-18T05:04:54;55.38;;;25.92;;
38457;SDS011;24239;48.058;10.486;2022-12-18T05:07:20;58.33;;;26.30;;
38457;SDS011;24239;48.058;10.486;2022-12-18T05:09:45;51.95;;;23.80;;
38457;SDS011;24239;48.058;10.486;2022-12-18T05:12:14;56.83;;;24.63;;
38457;SDS011;24239;48.058;10.486;2022-12-18T05:14:40;52.70;;;24.02;;
38457;SDS011;24239;48.058;10.486;2022-12-18T05:17:06;52.80;;;23.75;;
38457;SDS011;24239;48.058;10.486;2022-12-18T05:19:35;54.22;;;24.55;;
38457;SDS011;24239;48.058;10.486;2022-12-18T05:22:01;54.30;;;24.83;;
38457;SDS011;24239;48.058;10.486;2022-12-18T05:24:29;58.95;;;24.33;;
38457;SDS011;24239;48.058;10.486;2022-12-18T05:26:55;58.72;;;24.73;;
38457;SDS011;24239;48.058;10.486;2022-12-18T05:29:21;59.50;;;25.48;;
38457;SDS011;24239;48.058;10.486;2022-12-18T05:31:47;60.03;;;25.50;;
38457;SDS011;24239;48.058;10.486;2022-12-18T05:34:13;72.93;;;28.70;;
38457;SDS011;24239;48.058;10.486;2022-12-18T05:36:39;53.88;;;24.95;;
38457;SDS011;24239;48.058;10.486;2022-12-18T05:39:04;61.90;;;25.73;;
38457;SDS011;24239;48.058;10.486;2022-12-18T05:41:31;59.08;;;25.77;;
38457;SDS011;24239;48.058;10.486;2022-12-18T05:43:57;54.38;;;24.40;;
38457;SDS011;24239;48.058;10.486;2022-12-18T05:46:26;59.80;;;25.08;;
38457;SDS011;24239;48.058;10.486;2022-12-18T05:48:52;62.50;;;25.25;;
38457;SDS011;24239;48.058;10.486;2022-12-18T05:51:19;56.60;;;24.52;;
38457;SDS011;24239;48.058;10.486;2022-12-18T05:53:47;56.33;;;26.38;;
38457;SDS011;24239;48.058;10.486;2022-12-18T05:56:14;49.92;;;23.48;;
38457;SDS011;24239;48.058;10.486;2022-12-18T05:58:45;56.10;;;24.75;;
38457;SDS011;24239;48.058;10.486;2022-12-18T06:01:16;47.53;;;22.85;;
38457;SDS011;24239;48.058;10.486;2022-12-18T06:03:47;53.72;;;24.27;;
38457;SDS011;24239;48.058;10.486;2022-12-18T06:06:14;60.30;;;25.30;;
38457;SDS011;24239;48.058;10.486;2022-12-18T06:08:45;53.53;;;23.80;;
38457;SDS011;24239;48.058;10.486;2022-12-18T06:11:11;55.85;;;23.83;;
38457;SDS011;24239;48.058;10.486;2022-12-18T06:13:38;59.40;;;26.25;;
38457;SDS011;24239;48.058;10.486;2022-12-18T06:16:04;53.17;;;23.73;;
38457;SDS011;24239;48.058;10.486;2022-12-18T06:18:31;57.63;;;25.40;;
38457;SDS011;24239;48.058;10.486;2022-12-18T06:20:57;60.38;;;25.90;;
38457;SDS011;24239;48.058;10.486;2022-12-18T06:23:27;57.30;;;24.38;;
38457;SDS011;24239;48.058;10.486;2022-12-18T06:25:53;59.35;;;25.75;;
38457;SDS011;24239;48.058;10.486;2022-12-18T06:28:19;55.13;;;24.73;;
38457;SDS011;24239;48.058;10.486;2022-12-18T06:30:45;52.70;;;23.30;;
38457;SDS011;24239;48.058;10.486;2022-12-18T06:33:15;55.60;;;24.10;;
38457;SDS011;24239;48.058;10.486;2022-12-18T06:35:41;54.03;;;26.38;;
38457;SDS011;24239;48.058;10.486;2022-12-18T06:38:07;48.97;;;22.08;;
38457;SDS011;24239;48.058;10.486;2022-12-18T06:40:33;60.65;;;24.23;;
38457;SDS011;24239;48.058;10.486;2022-12-18T06:42:59;67.25;;;27.73;;
38457;SDS011;24239;48.058;10.486;2022-12-18T06:45:25;68.38;;;26.58;;
38457;SDS011;24239;48.058;10.486;2022-12-18T06:47:50;55.58;;;25.30;;
38457;SDS011;24239;48.058;10.486;2022-12-18T06:50:16;58.42;;;25.13;;
38457;SDS011;24239;48.058;10.486;2022-12-18T06:52:42;57.25;;;23.63;;
38457;SDS011;24239;48.058;10.486;2022-12-18T06:55:09;57.92;;;25.60;;
38457;SDS011;24239;48.058;10.486;2022-12-18T06:57:37;51.95;;;23.67;;
38457;SDS011;24239;48.058;10.486;2022-12-18T07:00:04;53.38;;;24.70;;
38457;SDS011;24239;48.058;10.486;2022-12-18T07:02:31;45.85;;;22.17;;
38457;SDS011;24239;48.058;10.486;2022-12-18T07:04:57;54.47;;;22.13;;
38457;SDS011;24239;48.058;10.486;2022-12-18T07:07:23;50.17;;;22.55;;
38457;SDS011;24239;48.058;10.486;2022-12-18T07:09:49;56.92;;;23.92;;
38457;SDS011;24239;48.058;10.486;2022-12-18T07:12:15;53.80;;;23.15;;
38457;SDS011;24239;48.058;10.486;2022-12-18T07:14:41;50.90;;;21.33;;
38457;SDS011;24239;48.058;10.486;2022-12-18T07:17:07;52.30;;;23.75;;
38457;SDS011;24239;48.058;10.486;2022-12-18T07:19:33;63.08;;;24.70;;
38457;SDS011;24239;48.058;10.486;2022-12-18T07:21:59;56.42;;;23.67;;
38457;SDS011;24239;48.058;10.486;2022-12-18T07:24:25;52.95;;;23.83;;
38457;SDS011;24239;48.058;10.486;2022-12-18T07:26:54;49.00;;;22.17;;
38457;SDS011;24239;48.058;10.486;2022-12-18T07:29:22;55.90;;;23.17;;
38457;SDS011;24239;48.058;10.486;2022-12-18T07:31:49;49.47;;;22.67;;
38457;SDS011;24239;48.058;10.486;2022-12-18T07:34:16;59.03;;;26.63;;
38457;SDS011;24239;48.058;10.486;2022-12-18T07:36:42;53.95;;;24.73;;
38457;SDS011;24239;48.058;10.486;2022-12-18T07:39:11;57.38;;;24.95;;
38457;SDS011;24239;48.058;10.486;2022-12-18T07:41:40;52.13;;;25.35;;
38457;SDS011;24239;48.058;10.486;2022-12-18T07:44:11;57.47;;;25.55;;
38457;SDS011;24239;48.058;10.486;2022-12-18T07:46:37;57.45;;;24.73;;
38457;SDS011;24239;48.058;10.486;2022-12-18T07:49:03;62.15;;;27.13;;
38457;SDS011;24239;48.058;10.486;2022-12-18T07:51:30;62.92;;;29.42;;
38457;SDS011;24239;48.058;10.486;2022-12-18T07:53:56;57.95;;;27.20;;
38457;SDS011;24239;48.058;10.486;2022-12-18T07:56:25;54.38;;;25.27;;
38457;SDS011;24239;48.058;10.486;2022-12-18T07:58:51;50.55;;;23.70;;
38457;SDS011;24239;48.058;10.486;2022-12-18T08:01:17;51.08;;;23.52;;
38457;SDS011;24239;48.058;10.486;2022-12-18T08:03:43;70.85;;;32.00;;
38457;SDS011;24239;48.058;10.486;2022-12-18T08:06:09;55.20;;;25.48;;
38457;SDS011;24239;48.058;10.486;2022-12-18T08:08:36;46.25;;;23.27;;
38457;SDS011;24239;48.058;10.486;2022-12-18T08:11:02;48.90;;;23.02;;
38457;SDS011;24239;48.058;10.486;2022-12-18T08:13:28;48.90;;;23.15;;
38457;SDS011;24239;48.058;10.486;2022-12-18T08:16:04;49.40;;;23.52;;
38457;SDS011;24239;48.058;10.486;2022-12-18T08:18:34;56.30;;;23.90;;
38457;SDS011;24239;48.058;10.486;2022-12-18T08:21:34;53.88;;;24.80;;
38457;SDS011;24239;48.058;10.486;2022-12-18T08:23:58;55.92;;;25.55;;
38457;SDS011;24239;48.058;10.486;2022-12-18T08:26:26;54.33;;;22.65;;
38457;SDS011;24239;48.058;10.486;2022-12-18T08:28:57;45.05;;;23.02;;
38457;SDS011;24239;48.058;10.486;2022-12-18T08:31:25;47.57;;;23.23;;
38457;SDS011;24239;48.058;10.486;2022-12-18T08:33:53;52.67;;;24.52;;
38457;SDS011;24239;48.058;10.486;2022-12-18T08:36:21;50.67;;;23.65;;
38457;SDS011;24239;48.058;10.486;2022-12-18T08:38:48;49.72;;;22.70;;
38457;SDS011;24239;48.058;10.486;2022-12-18T08:41:15;50.00;;;24.25;;
38457;SDS011;24239;48.058;10.486;2022-12-18T08:43:42;43.92;;;21.92;;
38457;SDS011;24239;48.058;10.486;2022-12-18T08:46:27;49.55;;;22.00;;
38457;SDS011;24239;48.058;10.486;2022-12-18T08:49:00;43.88;;;22.10;;
38457;SDS011;24239;48.058;10.486;2022-12-18T08:51:28;49.10;;;23.88;;
38457;SDS011;24239;48.058;10.486;2022-12-18T08:53:53;49.80;;;22.42;;
38457;SDS011;24239;48.058;10.486;2022-12-18T08:56:20;46.55;;;22.50;;
38457;SDS011;24239;48.058;10.486;2022-12-18T08:58:46;44.88;;;19.98;;
38457;SDS011;24239;48.058;10.486;2022-12-18T09:01:12;41.47;;;20.25;;
38457;SDS011;24239;48.058;10.486;2022-12-18T09:03:38;38.55;;;18.52;;
38457;SDS011;24239;48.058;10.486;2022-12-18T09:06:04;44.65;;;23.20;;
38457;SDS011;24239;48.058;10.486;2022-12-18T09:08:31;41.85;;;20.83;;
38457;SDS011;24239;48.058;10.486;2022-12-18T09:10:59;43.92;;;20.27;;
38457;SDS011;24239;48.058;10.486;2022-12-18T09:13:27;44.60;;;21.08;;
38457;SDS011;24239;48.058;10.486;2022-12-18T09:15:53;51.42;;;22.77;;
38457;SDS011;24239;48.058;10.486;2022-12-18T09:18:21;49.13;;;25.83;;
38457;SDS011;24239;48.058;10.486;2022-12-18T09:20:48;41.33;;;19.65;;
38457;SDS011;24239;48.058;10.486;2022-12-18T09:23:17;46.25;;;19.38;;
38457;SDS011;24239;48.058;10.486;2022-12-18T09:25:43;44.67;;;21.58;;
38457;SDS011;24239;48.058;10.486;2022-12-18T09:28:10;41.70;;;20.13;;
38457;SDS011;24239;48.058;10.486;2022-12-18T09:30:46;48.17;;;22.45;;
38457;SDS011;24239;48.058;10.486;2022-12-18T09:33:15;46.50;;;21.73;;
38457;SDS011;24239;48.058;10.486;2022-12-18T09:35:42;48.60;;;22.42;;
38457;SDS011;24239;48.058;10.486;2022-12-18T09:38:11;50.58;;;23.35;;
38457;SDS011;24239;48.058;10.486;2022-12-18T09:40:41;38.83;;;20.63;;
38457;SDS011;24239;48.058;10.486;2022-12-18T09:43:21;49.35;;;23.75;;
38457;SDS011;24239;48.058;10.486;2022-12-18T09:45:57;47.97;;;23.70;;
38457;SDS011;24239;48.058;10.486;2022-12-18T09:51:00;42.08;;;20.77;;
38457;SDS011;24239;48.058;10.486;2022-12-18T09:53:32;41.75;;;20.85;;
38457;SDS011;24239;48.058;10.486;2022-12-18T09:56:03;39.05;;;20.77;;
38457;SDS011;24239;48.058;10.486;2022-12-18T09:58:40;38.90;;;19.17;;
38457;SDS011;24239;48.058;10.486;2022-12-18T10:01:14;42.20;;;21.00;;
38457;SDS011;24239;48.058;10.486;2022-12-18T10:03:46;35.10;;;18.10;;
38457;SDS011;24239;48.058;10.486;2022-12-18T10:13:45;36.42;;;18.65;;
38457;SDS011;24239;48.058;10.486;2022-12-18T10:16:35;34.58;;;19.73;;
38457;SDS011;24239;48.058;10.486;2022-12-18T10:27:51;36.67;;;20.00;;
38457;SDS011;24239;48.058;10.486;2022-12-18T10:30:21;37.50;;;17.10;;
38457;SDS011;24239;48.058;10.486;2022-12-18T10:32:48;41.20;;;19.67;;
38457;SDS011;24239;48.058;10.486;2022-12-18T10:35:19;34.08;;;17.83;;
38457;SDS011;24239;48.058;10.486;2022-12-18T10:40:49;36.05;;;17.88;;
38457;SDS011;24239;48.058;10.486;2022-12-18T10:43:23;32.53;;;17.35;;
38457;SDS011;24239;48.058;10.486;2022-12-18T10:48:35;33.40;;;17.42;;
38457;SDS011;24239;48.058;10.486;2022-12-18T10:53:35;34.80;;;18.08;;
38457;SDS011;24239;48.058;10.486;2022-12-18T10:56:03;32.97;;;17.90;;
38457;SDS011;24239;48.058;10.486;2022-12-18T10:58:31;38.30;;;19.13;;
38457;SDS011;24239;48.058;10.486;2022-12-18T11:01:12;40.08;;;19.08;;
38457;SDS011;24239;48.058;10.486;2022-12-18T11:06:18;33.97;;;19.42;;
38457;SDS011;24239;48.058;10.486;2022-12-18T11:08:59;35.05;;;19.60;;
38457;SDS011;24239;48.058;10.486;2022-12-18T11:11:29;42.35;;;20.40;;
38457;SDS011;24239;48.058;10.486;2022-12-18T11:16:30;35.28;;;19.42;;
38457;SDS011;24239;48.058;10.486;2022-12-18T11:19:11;37.58;;;19.70;;
38457;SDS011;24239;48.058;10.486;2022-12-18T11:22:00;39.92;;;20.08;;
38457;SDS011;24239;48.058;10.486;2022-12-18T11:24:35;38.10;;;19.55;;
38457;SDS011;24239;48.058;10.486;2022-12-18T11:27:05;38.42;;;18.90;;
38457;SDS011;24239;48.058;10.486;2022-12-18T11:29:41;49.05;;;27.38;;
38457;SDS011;24239;48.058;10.486;2022-12-18T11:32:28;39.45;;;19.98;;
38457;SDS011;24239;48.058;10.486;2022-12-18T11:35:03;37.05;;;19.63;;
38457;SDS011;24239;48.058;10.486;2022-12-18T11:37:43;34.63;;;18.50;;
38457;SDS011;24239;48.058;10.486;2022-12-18T11:40:19;40.22;;;19.80;;
38457;SDS011;24239;48.058;10.486;2022-12-18T11:45:49;35.92;;;18.23;;
38457;SDS011;24239;48.058;10.486;2022-12-18T11:48:26;34.80;;;17.90;;
38457;SDS011;24239;48.058;10.486;2022-12-18T11:50:58;43.83;;;19.30;;
38457;SDS011;24239;48.058;10.486;2022-12-18T11:53:26;37.47;;;18.05;;
38457;SDS011;24239;48.058;10.486;2022-12-18T12:04:24;41.60;;;20.05;;
38457;SDS011;24239;48.058;10.486;2022-12-18T12:20:27;38.70;;;19.90;;
38457;SDS011;24239;48.058;10.486;2022-12-18T12:23:04;39.17;;;19.00;;
38457;SDS011;24239;48.058;10.486;2022-12-18T12:26:08;42.97;;;21.17;;
38457;SDS011;24239;48.058;10.486;2022-12-18T12:39:12;44.28;;;22.08;;
38457;SDS011;24239;48.058;10.486;2022-12-18T12:41:41;41.85;;;21.38;;
38457;SDS011;24239;48.058;10.486;2022-12-18T13:30:45;38.13;;;19.90;;
38457;SDS011;24239;48.058;10.486;2022-12-18T13:38:21;40.72;;;19.58;;
38457;SDS011;24239;48.058;10.486;2022-12-18T13:43:22;45.90;;;20.92;;
38457;SDS011;24239;48.058;10.486;2022-12-18T13:48:33;40.25;;;20.42;;
38457;SDS011;24239;48.058;10.486;2022-12-18T13:51:04;42.28;;;19.95;;
38457;SDS011;24239;48.058;10.486;2022-12-18T13:53:50;47.38;;;22.95;;
38457;SDS011;24239;48.058;10.486;2022-12-18T13:56:29;40.50;;;21.58;;
38457;SDS011;24239;48.058;10.486;2022-12-18T13:59:13;60.97;;;24.08;;
38457;SDS011;24239;48.058;10.486;2022-12-18T14:01:43;68.60;;;26.80;;
38457;SDS011;24239;48.058;10.486;2022-12-18T14:04:30;47.38;;;22.38;;
38457;SDS011;24239;48.058;10.486;2022-12-18T14:07:11;49.72;;;23.80;;
38457;SDS011;24239;48.058;10.486;2022-12-18T14:09:43;39.70;;;20.10;;
38457;SDS011;24239;48.058;10.486;2022-12-18T14:12:15;41.78;;;21.05;;
38457;SDS011;24239;48.058;10.486;2022-12-18T14:15:02;42.83;;;22.42;;
38457;SDS011;24239;48.058;10.486;2022-12-18T14:17:31;48.97;;;22.35;;
38457;SDS011;24239;48.058;10.486;2022-12-18T14:19:57;44.20;;;19.98;;
38457;SDS011;24239;48.058;10.486;2022-12-18T14:22:24;44.28;;;21.10;;
38457;SDS011;24239;48.058;10.486;2022-12-18T14:27:41;46.70;;;23.45;;
38457;SDS011;24239;48.058;10.486;2022-12-18T14:30:45;45.80;;;21.83;;
38457;SDS011;24239;48.058;10.486;2022-12-18T14:33:12;40.42;;;20.65;;
38457;SDS011;24239;48.058;10.486;2022-12-18T14:35:41;46.88;;;23.27;;
38457;SDS011;24239;48.058;10.486;2022-12-18T15:39:10;54.35;;;25.65;;
38457;SDS011;24239;48.058;10.486;2022-12-18T15:41:38;49.15;;;23.48;;
38457;SDS011;24239;48.058;10.486;2022-12-18T15:47:01;54.63;;;22.77;;
38457;SDS011;24239;48.058;10.486;2022-12-18T15:52:50;51.05;;;22.05;;
38457;SDS011;24239;48.058;10.486;2022-12-18T15:55:22;53.35;;;24.00;;
38457;SDS011;24239;48.058;10.486;2022-12-18T15:58:08;54.90;;;24.52;;
38457;SDS011;24239;48.058;10.486;2022-12-18T16:00:35;55.67;;;25.88;;
38457;SDS011;24239;48.058;10.486;2022-12-18T16:03:03;56.63;;;25.88;;
38457;SDS011;24239;48.058;10.486;2022-12-18T16:05:30;55.47;;;25.05;;
38457;SDS011;24239;48.058;10.486;2022-12-18T16:07:58;60.13;;;26.77;;
38457;SDS011;24239;48.058;10.486;2022-12-18T16:10:25;58.25;;;26.13;;
38457;SDS011;24239;48.058;10.486;2022-12-18T16:12:54;66.18;;;28.17;;
38457;SDS011;24239;48.058;10.486;2022-12-18T16:15:20;61.92;;;27.33;;
38457;SDS011;24239;48.058;10.486;2022-12-18T16:17:53;63.47;;;28.10;;
38457;SDS011;24239;48.058;10.486;2022-12-18T16:20:20;58.83;;;27.58;;
38457;SDS011;24239;48.058;10.486;2022-12-18T16:22:49;66.72;;;28.65;;
38457;SDS011;24239;48.058;10.486;2022-12-18T16:25:20;61.58;;;27.80;;
38457;SDS011;24239;48.058;10.486;2022-12-18T16:27:48;64.60;;;28.60;;
38457;SDS011;24239;48.058;10.486;2022-12-18T16:30:15;60.05;;;26.70;;
38457;SDS011;24239;48.058;10.486;2022-12-18T16:32:42;59.28;;;28.85;;
38457;SDS011;24239;48.058;10.486;2022-12-18T16:35:09;58.47;;;26.58;;
38457;SDS011;24239;48.058;10.486;2022-12-18T16:37:39;61.05;;;27.10;;
38457;SDS011;24239;48.058;10.486;2022-12-18T16:40:06;50.67;;;24.08;;
38457;SDS011;24239;48.058;10.486;2022-12-18T16:42:35;55.85;;;24.40;;
38457;SDS011;24239;48.058;10.486;2022-12-18T16:45:04;57.28;;;25.50;;
38457;SDS011;24239;48.058;10.486;2022-12-18T16:47:31;58.55;;;27.02;;
38457;SDS011;24239;48.058;10.486;2022-12-18T16:49:57;57.63;;;24.63;;
38457;SDS011;24239;48.058;10.486;2022-12-18T16:52:23;56.40;;;26.50;;
38457;SDS011;24239;48.058;10.486;2022-12-18T16:54:49;56.53;;;25.52;;
38457;SDS011;24239;48.058;10.486;2022-12-18T16:57:16;63.95;;;26.48;;
38457;SDS011;24239;48.058;10.486;2022-12-18T16:59:43;56.53;;;24.85;;
38457;SDS011;24239;48.058;10.486;2022-12-18T17:02:13;56.33;;;26.75;;
38457;SDS011;24239;48.058;10.486;2022-12-18T17:04:43;59.50;;;27.75;;
38457;SDS011;24239;48.058;10.486;2022-12-18T17:07:10;62.05;;;28.52;;
38457;SDS011;24239;48.058;10.486;2022-12-18T17:09:36;59.83;;;28.30;;
38457;SDS011;24239;48.058;10.486;2022-12-18T17:12:06;66.30;;;30.92;;
38457;SDS011;24239;48.058;10.486;2022-12-18T17:14:32;61.03;;;27.15;;
38457;SDS011;24239;48.058;10.486;2022-12-18T17:16:59;56.58;;;27.05;;
38457;SDS011;24239;48.058;10.486;2022-12-18T17:19:27;55.92;;;24.88;;
38457;SDS011;24239;48.058;10.486;2022-12-18T17:21:53;54.38;;;24.17;;
38457;SDS011;24239;48.058;10.486;2022-12-18T17:24:20;67.55;;;30.17;;
38457;SDS011;24239;48.058;10.486;2022-12-18T17:26:45;64.07;;;31.33;;
38457;SDS011;24239;48.058;10.486;2022-12-18T17:29:15;60.92;;;30.27;;
38457;SDS011;24239;48.058;10.486;2022-12-18T17:31:42;70.97;;;32.38;;
38457;SDS011;24239;48.058;10.486;2022-12-18T17:34:09;54.67;;;27.10;;
38457;SDS011;24239;48.058;10.486;2022-12-18T17:36:36;67.18;;;28.75;;
38457;SDS011;24239;48.058;10.486;2022-12-18T17:39:03;53.80;;;25.95;;
38457;SDS011;24239;48.058;10.486;2022-12-18T17:41:30;55.58;;;25.08;;
38457;SDS011;24239;48.058;10.486;2022-12-18T17:44:00;56.38;;;24.83;;
38457;SDS011;24239;48.058;10.486;2022-12-18T17:46:29;61.05;;;24.00;;
38457;SDS011;24239;48.058;10.486;2022-12-18T17:48:57;49.72;;;22.30;;
38457;SDS011;24239;48.058;10.486;2022-12-18T17:51:24;51.35;;;22.23;;
38457;SDS011;24239;48.058;10.486;2022-12-18T17:53:50;56.15;;;26.02;;
38457;SDS011;24239;48.058;10.486;2022-12-18T17:56:17;51.15;;;24.88;;
38457;SDS011;24239;48.058;10.486;2022-12-18T17:58:44;60.03;;;25.80;;
38457;SDS011;24239;48.058;10.486;2022-12-18T18:01:14;56.40;;;25.67;;
38457;SDS011;24239;48.058;10.486;2022-12-18T18:03:43;41.67;;;20.80;;
38457;SDS011;24239;48.058;10.486;2022-12-18T18:06:09;56.83;;;24.40;;
38457;SDS011;24239;48.058;10.486;2022-12-18T18:08:43;57.47;;;22.90;;
38457;SDS011;24239;48.058;10.486;2022-12-18T18:11:12;42.70;;;21.65;;
38457;SDS011;24239;48.058;10.486;2022-12-18T18:13:59;46.22;;;21.17;;
38457;SDS011;24239;48.058;10.486;2022-12-18T18:16:25;49.05;;;21.45;;